Time;durP1;ratioP1;P1;durP2;ratioP2;P2;SDS_P1;SDS_P2;PMS_P1;PMS_P2;Temp;Humidity;BMP_temperature;BMP_pressure;BME280_temperature;BME280_humidity;BME280_pressure;Samples;Min_cycle;Max_cycle;Signal;HPM_P1;HPM_P2
2021/09/01 00:01:37;;;;;;;2.40;1.70;;;24.20;54.70;;;;;;5021798;28;20033;-59
2021/09/01 00:04:03;;;;;;;3.28;1.90;;;24.20;54.70;;;;;;5017591;28;20067;-58
2021/09/01 00:06:29;;;;;;;2.35;1.70;;;24.20;54.70;;;;;;5018394;28;20037;-56
2021/09/01 00:08:55;;;;;;;2.33;1.77;;;24.20;54.70;;;;;;5021138;28;20369;-56
2021/09/01 00:11:21;;;;;;;2.88;1.77;;;24.20;54.70;;;;;;5021416;28;20582;-59
2021/09/01 00:13:48;;;;;;;2.72;1.80;;;24.20;54.70;;;;;;5021607;28;20057;-60
2021/09/01 00:16:26;;;;;;;2.60;1.73;;;24.20;54.70;;;;;;5018147;28;20030;-59
2021/09/01 00:18:56;;;;;;;2.38;1.83;;;24.20;54.70;;;;;;5018728;28;20095;-52
2021/09/01 00:21:22;;;;;;;2.08;1.45;;;24.20;54.70;;;;;;5015045;28;20049;-51
2021/09/01 00:23:49;;;;;;;2.35;1.65;;;24.20;54.70;;;;;;5020110;28;20115;-57
2021/09/01 00:26:15;;;;;;;2.50;1.75;;;24.20;54.70;;;;;;5023835;28;20041;-56
2021/09/01 00:28:41;;;;;;;3.10;1.90;;;24.20;54.70;;;;;;5022191;28;20022;-57
2021/09/01 00:31:06;;;;;;;2.60;1.88;;;24.20;54.70;;;;;;5025041;28;20034;-51
2021/09/01 00:33:32;;;;;;;2.90;1.80;;;24.20;54.70;;;;;;5018906;28;20030;-52
2021/09/01 00:35:57;;;;;;;2.58;1.70;;;24.10;54.70;;;;;;5022708;28;20029;-59
2021/09/01 00:38:23;;;;;;;2.75;1.77;;;24.10;54.70;;;;;;5025595;28;20021;-59
2021/09/01 00:40:50;;;;;;;2.60;1.70;;;24.10;54.70;;;;;;5020957;28;20096;-55
2021/09/01 00:43:16;;;;;;;2.58;1.75;;;24.10;54.70;;;;;;5012265;28;20069;-55
2021/09/01 00:45:45;;;;;;;2.30;1.70;;;24.10;54.70;;;;;;5021425;28;20056;-58
2021/09/01 00:48:11;;;;;;;2.25;1.70;;;24.10;54.70;;;;;;5016591;28;20026;-59
2021/09/01 00:50:37;;;;;;;2.58;1.73;;;24.10;54.70;;;;;;5025600;28;20025;-53
2021/09/01 00:53:03;;;;;;;2.65;1.60;;;24.10;54.70;;;;;;5025304;28;20432;-54
2021/09/01 00:55:29;;;;;;;2.20;1.65;;;24.10;54.80;;;;;;5023942;28;20564;-59
2021/09/01 00:57:55;;;;;;;2.03;1.52;;;24.10;54.70;;;;;;5023044;28;20025;-55
2021/09/01 01:00:34;;;;;;;1.98;1.50;;;24.10;54.80;;;;;;5016496;28;20464;-55
2021/09/01 01:03:00;;;;;;;2.70;1.83;;;24.10;54.80;;;;;;5017274;28;20071;-56
2021/09/01 01:05:26;;;;;;;2.80;2.00;;;24.10;54.80;;;;;;5022034;28;20044;-58
2021/09/01 01:07:52;;;;;;;2.30;1.73;;;24.10;54.80;;;;;;5020400;28;20034;-56
2021/09/01 01:10:17;;;;;;;2.10;1.55;;;24.10;54.80;;;;;;5023225;28;20112;-58
2021/09/01 01:12:43;;;;;;;2.97;2.00;;;24.10;54.80;;;;;;5017499;28;20640;-59
2021/09/01 01:15:09;;;;;;;3.00;1.80;;;24.00;54.70;;;;;;5018988;28;20036;-60
2021/09/01 01:17:35;;;;;;;2.10;1.60;;;24.00;54.70;;;;;;5018127;28;20544;-56
2021/09/01 01:20:00;;;;;;;2.25;1.58;;;24.00;54.80;;;;;;5023008;28;20524;-52
2021/09/01 01:22:26;;;;;;;2.55;1.58;;;24.00;54.80;;;;;;5040139;28;20974;-54
2021/09/01 01:25:08;;;;;;;3.28;1.73;;;24.00;54.70;;;;;;5024590;28;20377;-51
2021/09/01 01:27:43;;;;;;;2.60;1.60;;;24.00;54.70;;;;;;5022741;28;20032;-58
2021/09/01 01:30:12;;;;;;;2.70;1.90;;;24.00;54.70;;;;;;5018315;28;20123;-58
2021/09/01 01:32:39;;;;;;;2.20;1.60;;;24.00;54.70;;;;;;5015722;28;20044;-57
2021/09/01 01:35:07;;;;;;;2.83;1.58;;;24.00;54.80;;;;;;5026104;28;20029;-55
2021/09/01 01:37:33;;;;;;;2.10;1.60;;;24.00;54.80;;;;;;5021091;28;20190;-60
2021/09/01 01:39:58;;;;;;;2.70;1.88;;;24.00;55.30;;;;;;5020826;28;20029;-59
2021/09/01 01:42:24;;;;;;;3.17;1.80;;;24.00;54.80;;;;;;5020104;28;20129;-58
2021/09/01 01:44:50;;;;;;;2.15;1.60;;;23.90;54.70;;;;;;5014509;28;20056;-53
2021/09/01 01:47:15;;;;;;;2.60;1.60;;;23.90;54.70;;;;;;5014298;28;20072;-59
2021/09/01 01:49:41;;;;;;;2.15;1.55;;;23.90;54.70;;;;;;5024898;28;20071;-59
2021/09/01 01:52:07;;;;;;;2.17;1.60;;;23.90;54.70;;;;;;5024331;28;20428;-53
2021/09/01 01:54:32;;;;;;;2.10;1.58;;;23.90;54.70;;;;;;5019323;28;20030;-59
2021/09/01 01:56:59;;;;;;;3.15;2.00;;;23.90;54.70;;;;;;5022998;28;20048;-57
2021/09/01 01:59:24;;;;;;;2.15;1.70;;;23.90;54.70;;;;;;5019051;28;20787;-54
2021/09/01 02:01:50;;;;;;;1.95;1.40;;;23.90;54.70;;;;;;5023168;28;20060;-59
2021/09/01 02:04:16;;;;;;;2.83;1.63;;;23.90;54.70;;;;;;5019724;28;20469;-54
2021/09/01 02:06:41;;;;;;;2.40;1.70;;;23.90;55.00;;;;;;5013633;28;20571;-50
2021/09/01 02:09:07;;;;;;;2.45;1.80;;;23.90;54.80;;;;;;5019916;28;20034;-58
2021/09/01 02:11:33;;;;;;;2.97;1.90;;;23.90;54.80;;;;;;5023930;28;20018;-58
2021/09/01 02:13:59;;;;;;;2.97;1.70;;;23.90;54.80;;;;;;5022642;28;20048;-59
2021/09/01 02:16:25;;;;;;;2.25;1.67;;;23.90;54.90;;;;;;5023639;28;20068;-59
2021/09/01 02:18:50;;;;;;;2.40;1.65;;;23.80;54.80;;;;;;5018032;28;20025;-57
2021/09/01 02:21:16;;;;;;;2.42;1.60;;;23.80;54.80;;;;;;5025419;28;20430;-58
2021/09/01 02:23:41;;;;;;;2.08;1.40;;;23.80;54.80;;;;;;5021567;28;20030;-53
2021/09/01 02:26:07;;;;;;;2.15;1.65;;;23.80;54.80;;;;;;5020967;28;20045;-56
2021/09/01 02:28:33;;;;;;;2.30;1.60;;;23.80;54.80;;;;;;5018956;28;20570;-58
2021/09/01 02:30:58;;;;;;;2.58;1.70;;;23.80;54.80;;;;;;5018824;28;20033;-57
2021/09/01 02:33:24;;;;;;;2.58;1.92;;;23.80;54.80;;;;;;5009306;28;20026;-59
2021/09/01 02:35:49;;;;;;;2.53;1.60;;;23.80;54.80;;;;;;5019293;28;20490;-59
2021/09/01 02:38:15;;;;;;;2.33;1.70;;;23.80;54.80;;;;;;5016279;28;20029;-60
2021/09/01 02:40:41;;;;;;;2.45;1.65;;;23.80;54.80;;;;;;5024029;28;20109;-56
2021/09/01 02:43:07;;;;;;;2.30;1.55;;;23.80;54.80;;;;;;5014874;28;20113;-57
2021/09/01 02:45:33;;;;;;;2.42;1.60;;;23.70;54.80;;;;;;5021727;28;20029;-49
2021/09/01 02:47:58;;;;;;;1.95;1.38;;;23.80;55.40;;;;;;5011141;28;20124;-58
2021/09/01 02:50:24;;;;;;;2.13;1.48;;;23.70;54.80;;;;;;5023660;28;20036;-59
2021/09/01 02:52:50;;;;;;;2.30;1.67;;;23.70;54.80;;;;;;5020550;28;20022;-59
2021/09/01 02:55:16;;;;;;;2.22;1.75;;;23.70;54.80;;;;;;5021526;28;20025;-58
2021/09/01 02:57:41;;;;;;;2.80;1.60;;;23.70;54.80;;;;;;5020250;28;20021;-55
2021/09/01 03:00:08;;;;;;;2.45;1.70;;;23.70;54.80;;;;;;5026773;28;20461;-53
2021/09/01 03:02:33;;;;;;;3.05;1.60;;;23.70;54.80;;;;;;5025612;28;20104;-54
2021/09/01 03:04:59;;;;;;;1.77;1.35;;;23.70;54.80;;;;;;5017439;28;20022;-59
2021/09/01 03:07:25;;;;;;;2.17;1.60;;;23.70;54.80;;;;;;5021758;28;20048;-55
2021/09/01 03:09:50;;;;;;;3.05;1.80;;;23.70;54.80;;;;;;5021245;28;20033;-57
2021/09/01 03:12:16;;;;;;;2.75;1.67;;;23.70;54.90;;;;;;5027876;28;20125;-59
2021/09/01 03:14:41;;;;;;;2.50;1.55;;;23.70;54.90;;;;;;5020100;28;20520;-52
2021/09/01 03:17:07;;;;;;;2.30;1.60;;;23.70;54.80;;;;;;5018027;28;20457;-58
2021/09/01 03:19:33;;;;;;;1.90;1.38;;;23.70;54.80;;;;;;5021400;28;20026;-57
2021/09/01 03:21:58;;;;;;;2.53;1.70;;;23.70;54.90;;;;;;5028357;28;20119;-59
2021/09/01 03:24:24;;;;;;;1.65;1.40;;;23.70;54.90;;;;;;5025326;28;20021;-56
2021/09/01 03:26:50;;;;;;;2.90;1.65;;;23.70;54.80;;;;;;5013452;28;20037;-56
2021/09/01 03:29:15;;;;;;;2.00;1.50;;;23.70;54.90;;;;;;5017247;28;20037;-59
2021/09/01 03:31:41;;;;;;;2.45;1.60;;;23.60;54.90;;;;;;5024666;28;20022;-53
2021/09/01 03:34:06;;;;;;;2.10;1.50;;;23.60;54.90;;;;;;5020608;28;20025;-58
2021/09/01 03:36:32;;;;;;;2.03;1.42;;;23.60;54.90;;;;;;5017961;28;20113;-53
2021/09/01 03:38:58;;;;;;;2.38;1.30;;;23.60;54.90;;;;;;5013830;28;20036;-55
2021/09/01 03:41:24;;;;;;;1.73;1.40;;;23.60;54.90;;;;;;5010046;28;20025;-50
2021/09/01 03:43:49;;;;;;;2.33;1.58;;;23.60;54.90;;;;;;5010196;28;20037;-52
2021/09/01 03:46:15;;;;;;;2.05;1.50;;;23.60;54.90;;;;;;5023374;28;20083;-51
2021/09/01 03:48:41;;;;;;;2.60;1.50;;;23.60;54.90;;;;;;5011645;28;20077;-51
2021/09/01 03:51:07;;;;;;;2.20;1.67;;;23.60;55.00;;;;;;5024806;28;20472;-53
2021/09/01 03:53:32;;;;;;;2.92;1.52;;;23.60;55.00;;;;;;5022120;28;20029;-59
2021/09/01 03:55:58;;;;;;;2.60;1.60;;;23.60;55.00;;;;;;5026054;28;20088;-56
2021/09/01 03:58:24;;;;;;;2.30;1.80;;;23.60;55.00;;;;;;5026079;28;20034;-56
2021/09/01 04:00:49;;;;;;;2.13;1.52;;;23.50;54.90;;;;;;5013283;28;20049;-55
2021/09/01 04:03:15;;;;;;;1.83;1.40;;;23.60;55.00;;;;;;5025537;28;20533;-54
2021/09/01 04:05:41;;;;;;;2.10;1.48;;;23.60;55.00;;;;;;5015747;28;20374;-55
2021/09/01 04:08:07;;;;;;;2.20;1.48;;;23.60;55.00;;;;;;5023397;28;20044;-59
2021/09/01 04:10:32;;;;;;;2.17;1.60;;;23.50;54.90;;;;;;5019791;28;20033;-59
2021/09/01 04:12:58;;;;;;;2.28;1.60;;;23.50;54.90;;;;;;5013111;28;20026;-59
2021/09/01 04:15:24;;;;;;;2.05;1.52;;;23.50;54.90;;;;;;5012532;28;20049;-58
2021/09/01 04:17:49;;;;;;;2.25;1.55;;;23.50;55.00;;;;;;5010951;28;20056;-56
2021/09/01 04:20:15;;;;;;;2.10;1.40;;;23.50;54.90;;;;;;5009673;28;20123;-52
2021/09/01 04:22:41;;;;;;;2.10;1.45;;;23.50;55.00;;;;;;5014340;28;20084;-56
2021/09/01 04:25:07;;;;;;;2.53;1.67;;;23.50;55.00;;;;;;5024778;28;20033;-58
2021/09/01 04:27:32;;;;;;;2.10;1.50;;;23.50;54.90;;;;;;5020401;28;20152;-56
2021/09/01 04:29:58;;;;;;;2.08;1.50;;;23.50;54.90;;;;;;5027270;28;20072;-57
2021/09/01 04:32:24;;;;;;;2.30;1.65;;;23.50;55.00;;;;;;5028859;28;20026;-57
2021/09/01 04:34:49;;;;;;;2.20;1.55;;;23.50;55.50;;;;;;5027981;28;20025;-59
2021/09/01 04:37:15;;;;;;;2.55;1.65;;;23.50;55.00;;;;;;5025897;28;20075;-55
2021/09/01 04:39:41;;;;;;;2.00;1.42;;;23.50;55.00;;;;;;5022655;28;20140;-59
2021/09/01 04:42:06;;;;;;;2.60;1.70;;;23.50;55.00;;;;;;5022313;28;20042;-59
2021/09/01 04:44:32;;;;;;;2.20;1.52;;;23.40;55.00;;;;;;5023794;28;20505;-54
2021/09/01 04:46:58;;;;;;;2.03;1.50;;;23.40;54.90;;;;;;5016033;28;20034;-58
2021/09/01 04:49:24;;;;;;;2.28;1.67;;;23.40;54.90;;;;;;5020262;28;20769;-57
2021/09/01 04:51:50;;;;;;;1.90;1.60;;;23.40;55.00;;;;;;5027802;28;20021;-59
2021/09/01 04:54:16;;;;;;;1.90;1.55;;;23.40;55.00;;;;;;5024754;28;20040;-57
2021/09/01 04:56:41;;;;;;;1.98;1.50;;;23.40;55.00;;;;;;5020554;28;20101;-57
2021/09/01 04:59:07;;;;;;;1.95;1.30;;;23.40;55.00;;;;;;5020165;28;20029;-58
2021/09/01 05:01:33;;;;;;;1.88;1.30;;;23.40;55.00;;;;;;5020682;28;20095;-58
2021/09/01 05:03:58;;;;;;;2.05;1.48;;;23.40;55.00;;;;;;5021571;28;20060;-54
2021/09/01 05:06:26;;;;;;;2.17;1.60;;;23.40;55.00;;;;;;5021850;28;20045;-60
2021/09/01 05:08:53;;;;;;;1.92;1.33;;;23.40;55.00;;;;;;5020192;28;20042;-59
2021/09/01 05:11:19;;;;;;;2.38;1.40;;;23.40;55.00;;;;;;5013680;28;20101;-59
2021/09/01 05:13:45;;;;;;;2.15;1.50;;;23.40;55.00;;;;;;5018518;28;20121;-52
2021/09/01 05:16:10;;;;;;;2.20;1.50;;;23.40;55.00;;;;;;5031681;28;20102;-53
2021/09/01 05:18:36;;;;;;;2.20;1.52;;;23.40;55.10;;;;;;5013041;28;20029;-56
2021/09/01 05:21:05;;;;;;;1.83;1.38;;;23.40;55.00;;;;;;5017134;28;20482;-59
2021/09/01 05:23:33;;;;;;;2.15;1.60;;;23.30;55.00;;;;;;5013909;28;20036;-57
2021/09/01 05:26:05;;;;;;;1.73;1.30;;;23.30;55.00;;;;;;5010411;28;20026;-59
2021/09/01 05:28:33;;;;;;;1.85;1.30;;;23.40;55.00;;;;;;5020085;28;20064;-52
2021/09/01 05:31:01;;;;;;;1.85;1.30;;;23.30;55.10;;;;;;5018993;28;20030;-52
2021/09/01 05:33:39;;;;;;;1.98;1.40;;;23.40;55.10;;;;;;5017359;28;20340;-55
2021/09/01 05:36:06;;;;;;;1.97;1.37;;;23.30;55.00;;;;;;5021832;28;20033;-57
2021/09/01 05:38:36;;;;;;;1.70;1.27;;;23.30;55.00;;;;;;5017682;28;20022;-58
2021/09/01 05:41:02;;;;;;;2.25;1.70;;;23.30;55.60;;;;;;5022472;28;20565;-57
2021/09/01 05:43:28;;;;;;;2.08;1.50;;;23.30;50.40;;;;;;5021015;28;20044;-57
2021/09/01 05:45:54;;;;;;;3.17;1.77;;;23.20;48.30;;;;;;5025355;28;20030;-59
2021/09/01 05:48:20;;;;;;;2.65;1.60;;;23.10;47.70;;;;;;5019483;28;20059;-57
2021/09/01 05:50:54;;;;;;;2.95;1.70;;;23.00;47.20;;;;;;5030214;28;20120;-57
2021/09/01 05:53:20;;;;;;;2.40;1.60;;;22.80;47.80;;;;;;5027152;28;20018;-58
2021/09/01 05:55:49;;;;;;;2.90;1.90;;;22.70;47.50;;;;;;5026066;28;20064;-56
2021/09/01 05:58:17;;;;;;;3.00;1.90;;;22.70;48.10;;;;;;5024998;28;20121;-50
2021/09/01 06:00:46;;;;;;;2.92;2.25;;;22.60;47.70;;;;;;5021712;28;20500;-55
2021/09/01 06:03:11;;;;;;;3.85;2.22;;;22.50;47.90;;;;;;5014935;28;20026;-59
2021/09/01 06:05:38;;;;;;;3.38;2.40;;;22.40;48.10;;;;;;5026683;28;20039;-58
2021/09/01 06:08:09;;;;;;;3.40;2.50;;;22.40;48.60;;;;;;5025840;28;20244;-57
2021/09/01 06:10:37;;;;;;;3.42;2.50;;;22.30;48.40;;;;;;5015398;28;20180;-48
2021/09/01 06:13:06;;;;;;;3.08;2.53;;;22.20;48.60;;;;;;5016931;28;20029;-57
2021/09/01 06:15:33;;;;;;;;;;;22.10;48.90;;;;;;5011091;28;20106;-58
2021/09/01 06:18:00;;;;;;;3.97;2.60;;;22.00;49.30;;;;;;5019666;28;19924;-59
2021/09/01 06:20:26;;;;;;;3.53;2.30;;;21.80;49.40;;;;;;5043102;28;20037;-57
2021/09/01 06:22:53;;;;;;;4.40;2.00;;;21.80;50.20;;;;;;5018566;28;20041;-59
2021/09/01 06:25:19;;;;;;;3.10;2.30;;;22.00;50.10;;;;;;5009099;28;20389;-59
2021/09/01 06:27:44;;;;;;;3.10;2.20;;;22.10;50.00;;;;;;5013189;28;20026;-59
2021/09/01 06:30:11;;;;;;;3.53;2.50;;;22.20;49.90;;;;;;5021554;28;20135;-54
2021/09/01 06:32:37;;;;;;;3.95;2.15;;;22.20;49.80;;;;;;5018904;28;20021;-58
2021/09/01 06:35:03;;;;;;;2.80;2.10;;;22.30;50.00;;;;;;5016522;28;20087;-59
2021/09/01 06:37:29;;;;;;;3.20;2.35;;;22.40;50.00;;;;;;5022237;28;20044;-55
2021/09/01 06:39:54;;;;;;;2.33;1.75;;;22.50;50.00;;;;;;5033689;28;20033;-56
2021/09/01 06:42:20;;;;;;;2.60;1.90;;;22.60;50.10;;;;;;5013584;28;20935;-53
2021/09/01 06:44:46;;;;;;;5.15;1.90;;;22.60;50.10;;;;;;5031792;28;20051;-59
2021/09/01 06:47:12;;;;;;;3.25;2.03;;;22.60;50.10;;;;;;5021923;28;20037;-59
2021/09/01 06:49:37;;;;;;;2.88;1.90;;;22.70;50.30;;;;;;5028826;28;20033;-51
2021/09/01 06:52:04;;;;;;;2.85;1.90;;;22.70;50.40;;;;;;5027769;28;20137;-59
2021/09/01 06:54:30;;;;;;;4.10;1.80;;;22.70;50.50;;;;;;5020515;28;20092;-59
2021/09/01 06:56:55;;;;;;;2.70;2.10;;;22.80;50.60;;;;;;5028392;28;20097;-58
2021/09/01 06:59:21;;;;;;;2.67;1.98;;;22.80;51.10;;;;;;5027307;28;20688;-56
2021/09/01 07:01:47;;;;;;;2.42;1.80;;;22.80;50.60;;;;;;5023232;28;20021;-52
2021/09/01 07:04:13;;;;;;;3.58;1.80;;;22.90;50.60;;;;;;5034293;28;20160;-55
2021/09/01 07:06:38;;;;;;;2.30;1.80;;;22.90;50.70;;;;;;5020802;28;20037;-59
2021/09/01 07:09:04;;;;;;;2.42;1.60;;;23.00;50.80;;;;;;5016893;28;20149;-55
2021/09/01 07:11:30;;;;;;;2.08;1.58;;;23.00;50.90;;;;;;5023067;28;20732;-57
2021/09/01 07:13:55;;;;;;;3.38;1.90;;;23.00;50.90;;;;;;5031465;28;20503;-54
2021/09/01 07:16:21;;;;;;;3.60;1.60;;;23.00;50.90;;;;;;5023196;28;20060;-57
2021/09/01 07:18:47;;;;;;;2.60;1.80;;;23.00;50.90;;;;;;5028281;28;20121;-56
2021/09/01 07:21:13;;;;;;;2.67;1.67;;;23.10;51.00;;;;;;5020502;28;20520;-58
2021/09/01 07:23:39;;;;;;;2.50;1.80;;;23.10;51.00;;;;;;5025683;28;20033;-59
2021/09/01 07:26:05;;;;;;;2.55;1.75;;;23.10;51.50;;;;;;5016349;28;20030;-58
2021/09/01 07:28:31;;;;;;;2.50;1.70;;;23.10;51.00;;;;;;5024946;28;20029;-58
2021/09/01 07:30:57;;;;;;;2.20;1.60;;;23.20;51.00;;;;;;5022180;28;20104;-56
2021/09/01 07:33:23;;;;;;;2.72;1.77;;;23.20;51.10;;;;;;5018271;28;20077;-58
2021/09/01 07:35:49;;;;;;;2.35;1.77;;;23.20;51.10;;;;;;5024230;28;20048;-56
2021/09/01 07:38:15;;;;;;;2.20;1.63;;;23.30;51.10;;;;;;5022772;28;20076;-53
2021/09/01 07:40:41;;;;;;;2.13;1.70;;;23.30;51.10;;;;;;5009988;28;20081;-55
2021/09/01 07:43:07;;;;;;;2.22;1.60;;;23.30;51.10;;;;;;5009441;28;20084;-54
2021/09/01 07:45:32;;;;;;;2.00;1.60;;;23.40;51.20;;;;;;5013399;28;20021;-57
2021/09/01 07:47:58;;;;;;;2.08;1.42;;;23.40;51.20;;;;;;5028700;28;20064;-59
2021/09/01 07:50:28;;;;;;;1.88;1.40;;;23.40;51.40;;;;;;5012669;28;20097;-56
2021/09/01 07:52:53;;;;;;;;;;;23.40;51.10;;;;;;5020137;28;20453;-59
2021/09/01 07:55:19;;;;;;;2.28;1.60;;;23.40;51.20;;;;;;5030519;28;19944;-57
2021/09/01 07:57:45;;;;;;;2.40;1.70;;;23.50;51.20;;;;;;5028268;28;20075;-59
2021/09/01 08:00:11;;;;;;;2.22;1.60;;;23.50;51.10;;;;;;5025115;28;20068;-60
2021/09/01 08:02:38;;;;;;;2.03;1.45;;;23.50;51.10;;;;;;5014862;28;20135;-58
2021/09/01 08:05:05;;;;;;;2.00;1.50;;;23.60;51.20;;;;;;5034279;28;20033;-53
2021/09/01 08:07:31;;;;;;;2.20;1.55;;;23.60;51.20;;;;;;5016081;28;20075;-58
2021/09/01 08:09:57;;;;;;;2.72;1.60;;;23.60;51.20;;;;;;5019286;28;20034;-54
2021/09/01 08:12:23;;;;;;;2.00;1.45;;;23.60;51.20;;;;;;5013335;28;20049;-56
2021/09/01 08:14:48;;;;;;;2.03;1.55;;;23.60;51.30;;;;;;5022157;28;20033;-58
2021/09/01 08:17:14;;;;;;;2.30;1.42;;;23.70;51.40;;;;;;5017624;28;20029;-58
2021/09/01 08:19:44;;;;;;;2.05;1.40;;;23.70;51.40;;;;;;5023808;28;20042;-55
2021/09/01 08:22:11;;;;;;;2.10;1.60;;;23.70;51.30;;;;;;5021645;28;20021;-59
2021/09/01 08:24:38;;;;;;;2.15;1.50;;;23.70;51.40;;;;;;5019247;28;20037;-55
2021/09/01 08:27:11;;;;;;;1.63;1.30;;;23.80;51.40;;;;;;5031339;28;20059;-57
2021/09/01 08:29:38;;;;;;;1.95;1.30;;;23.80;51.40;;;;;;5029154;28;20591;-56
2021/09/01 08:32:04;;;;;;;2.20;1.42;;;23.80;51.40;;;;;;5031171;28;20033;-59
2021/09/01 08:34:30;;;;;;;2.25;1.58;;;23.90;51.40;;;;;;5046955;28;20572;-58
2021/09/01 08:36:56;;;;;;;2.10;1.50;;;23.90;51.40;;;;;;5030740;28;20446;-55
2021/09/01 08:39:22;;;;;;;1.98;1.48;;;23.90;51.50;;;;;;5025217;28;20099;-59
2021/09/01 08:41:48;;;;;;;1.92;1.33;;;23.90;51.50;;;;;;5025669;28;20040;-58
2021/09/01 08:44:15;;;;;;;2.00;1.52;;;23.90;51.50;;;;;;5018153;28;20104;-55
2021/09/01 08:46:43;;;;;;;2.00;1.50;;;24.00;51.50;;;;;;5015166;28;20081;-60
2021/09/01 08:49:11;;;;;;;2.75;1.60;;;24.00;51.50;;;;;;5016697;28;20037;-57
2021/09/01 08:51:37;;;;;;;3.08;1.48;;;24.00;51.40;;;;;;5022899;28;20045;-59
2021/09/01 08:54:04;;;;;;;2.10;1.52;;;24.10;51.50;;;;;;5021507;28;20133;-59
2021/09/01 08:56:30;;;;;;;2.42;1.63;;;24.10;51.50;;;;;;5021759;28;20529;-59
2021/09/01 08:58:56;;;;;;;2.58;1.55;;;24.10;51.50;;;;;;5012564;28;20520;-53
2021/09/01 09:01:42;;;;;;;2.40;1.33;;;24.10;51.50;;;;;;5024569;28;20112;-55
2021/09/01 09:04:26;;;;;;;1.83;1.42;;;24.20;51.50;;;;;;5021826;28;20029;-57
2021/09/01 09:06:59;;;;;;;2.03;1.42;;;24.20;51.50;;;;;;5021290;28;20130;-58
2021/09/01 09:09:30;;;;;;;2.55;1.80;;;24.20;51.60;;;;;;5017570;28;20044;-57
2021/09/01 09:11:57;;;;;;;3.83;1.40;;;24.20;51.50;;;;;;5017759;28;20113;-56
2021/09/01 09:14:38;;;;;;;2.05;1.50;;;24.20;51.40;;;;;;5015578;28;20152;-53
2021/09/01 09:17:04;;;;;;;2.13;1.60;;;24.30;51.50;;;;;;5021606;28;20026;-58
2021/09/01 09:19:49;;;;;;;2.50;1.70;;;24.20;51.40;;;;;;5024433;28;20116;-56
2021/09/01 09:22:18;;;;;;;3.00;1.60;;;24.30;51.40;;;;;;5040218;28;20065;-55
2021/09/01 09:24:43;;;;;;;;;;;24.30;51.40;;;;;;5027170;28;20037;-55
2021/09/01 09:27:09;;;;;;;3.15;1.60;;;24.30;51.40;;;;;;5028746;28;19909;-57
2021/09/01 09:29:35;;;;;;;2.03;1.40;;;24.30;51.40;;;;;;5020765;28;20025;-59
2021/09/01 09:32:04;;;;;;;2.35;1.42;;;24.30;51.40;;;;;;5027007;28;20028;-57
2021/09/01 09:34:40;;;;;;;1.97;1.50;;;24.40;51.40;;;;;;5025718;28;20021;-55
2021/09/01 09:37:08;;;;;;;1.88;1.50;;;24.40;51.40;;;;;;5025356;28;20760;-59
2021/09/01 09:39:48;;;;;;;1.95;1.50;;;24.40;51.50;;;;;;5013536;28;20265;-52
2021/09/01 09:42:32;;;;;;;1.92;1.40;;;24.40;52.10;;;;;;5016256;28;20548;-57
2021/09/01 09:45:17;;;;;;;2.10;1.50;;;24.40;51.60;;;;;;5020184;28;20476;-50
2021/09/01 09:47:46;;;;;;;2.45;1.60;;;24.40;51.60;;;;;;5015344;28;20101;-58
2021/09/01 09:50:12;;;;;;;2.13;1.60;;;24.40;51.50;;;;;;5013675;28;20469;-54
2021/09/01 09:52:38;;;;;;;1.45;1.30;;;24.50;51.60;;;;;;5023814;28;22442;-58
2021/09/01 09:55:15;;;;;;;1.88;1.40;;;24.50;51.50;;;;;;5012435;28;20033;-57
2021/09/01 09:57:56;;;;;;;3.03;1.70;;;24.50;51.50;;;;;;5012297;28;20104;-51
2021/09/01 10:00:25;;;;;;;2.20;1.70;;;24.50;51.40;;;;;;5022864;28;20509;-59
2021/09/01 10:02:51;;;;;;;2.00;1.57;;;24.50;51.40;;;;;;5020462;28;20164;-59
2021/09/01 10:05:19;;;;;;;3.00;1.58;;;24.50;51.50;;;;;;5016356;28;20034;-58
2021/09/01 10:07:47;;;;;;;2.17;1.58;;;24.50;51.50;;;;;;5010428;28;20489;-58
2021/09/01 10:10:13;;;;;;;2.63;1.67;;;24.60;51.50;;;;;;5019091;28;20026;-58
2021/09/01 10:12:43;;;;;;;1.80;1.50;;;24.60;51.50;;;;;;5019545;28;20592;-55
2021/09/01 10:15:14;;;;;;;1.85;1.50;;;24.60;51.50;;;;;;5024469;28;20033;-55
2021/09/01 10:17:43;;;;;;;2.03;1.58;;;24.60;51.50;;;;;;5020868;28;20025;-56
2021/09/01 10:20:14;;;;;;;2.08;1.60;;;24.60;51.40;;;;;;5014808;28;20382;-57
2021/09/01 10:22:40;;;;;;;1.90;1.38;;;24.60;51.40;;;;;;5017269;28;20049;-58
2021/09/01 10:25:06;;;;;;;2.00;1.40;;;24.60;51.60;;;;;;5023141;28;20382;-56
2021/09/01 10:27:32;;;;;;;1.90;1.50;;;24.60;51.60;;;;;;5023124;28;20029;-49
2021/09/01 10:30:09;;;;;;;2.28;1.50;;;24.60;51.50;;;;;;5012960;28;20049;-58
2021/09/01 10:32:43;;;;;;;2.15;1.33;;;24.60;51.50;;;;;;5032657;28;20108;-54
2021/09/01 10:35:15;;;;;;;2.28;1.42;;;24.60;51.50;;;;;;5029822;28;20030;-56
2021/09/01 10:37:49;;;;;;;2.42;1.40;;;24.60;51.50;;;;;;5022454;28;20038;-55
2021/09/01 10:40:21;;;;;;;1.98;1.48;;;24.70;51.60;;;;;;5030329;28;20128;-55
2021/09/01 10:42:50;;;;;;;2.00;1.50;;;24.70;51.60;;;;;;5030610;28;20044;-54
2021/09/01 10:45:24;;;;;;;1.88;1.40;;;24.70;51.60;;;;;;5031292;28;20402;-54
2021/09/01 10:47:49;;;;;;;2.30;1.60;;;24.60;51.50;;;;;;5012393;28;20025;-51
2021/09/01 10:50:25;;;;;;;2.17;1.60;;;24.70;51.50;;;;;;5033858;28;20029;-53
2021/09/01 10:53:19;;;;;;;2.58;1.50;;;24.70;51.60;;;;;;5027122;28;20557;-53
2021/09/01 10:55:59;;;;;;;1.98;1.48;;;24.60;51.50;;;;;;5024202;28;20073;-54
2021/09/01 10:58:37;;;;;;;2.53;1.65;;;24.60;51.50;;;;;;5026726;28;20033;-58
2021/09/01 11:01:19;;;;;;;1.95;1.50;;;24.70;51.60;;;;;;5013448;28;20115;-59
2021/09/01 11:04:02;;;;;;;2.38;1.58;;;24.70;51.60;;;;;;5017568;28;20151;-51
2021/09/01 11:06:37;;;;;;;2.30;1.50;;;24.70;51.50;;;;;;5016580;28;20025;-58
2021/09/01 11:09:08;;;;;;;2.13;1.50;;;24.70;51.50;;;;;;5022395;28;20088;-58
2021/09/01 11:11:58;;;;;;;1.95;1.40;;;24.70;51.50;;;;;;5022422;28;20044;-58
2021/09/01 11:14:30;;;;;;;2.65;1.70;;;24.70;51.50;;;;;;5018983;28;20101;-55
2021/09/01 11:16:59;;;;;;;3.03;1.70;;;24.70;51.50;;;;;;5013717;28;20749;-56
2021/09/01 11:19:25;;;;;;;2.90;1.60;;;24.80;51.50;;;;;;5009736;28;20425;-55
2021/09/01 11:21:51;;;;;;;2.20;1.60;;;24.80;51.50;;;;;;5037568;28;20051;-54
2021/09/01 11:24:19;;;;;;;2.20;1.50;;;24.70;51.50;;;;;;5027674;28;20094;-60
2021/09/01 11:26:45;;;;;;;2.00;1.50;;;24.80;51.50;;;;;;5022077;28;20091;-55
2021/09/01 11:29:12;;;;;;;2.60;1.60;;;24.80;51.60;;;;;;5017083;28;20018;-58
2021/09/01 11:31:50;;;;;;;2.20;1.60;;;24.80;51.60;;;;;;5021987;28;20034;-57
2021/09/01 11:34:15;;;;;;;1.92;1.48;;;24.80;51.60;;;;;;5022291;28;20036;-58
2021/09/01 11:36:43;;;;;;;2.53;1.60;;;24.80;51.50;;;;;;5010375;28;20021;-50
2021/09/01 11:39:10;;;;;;;1.88;1.50;;;24.80;51.50;;;;;;5016922;28;20049;-58
2021/09/01 11:41:37;;;;;;;2.67;1.20;;;24.80;51.50;;;;;;5023668;28;20041;-58
2021/09/01 11:44:05;;;;;;;1.80;1.30;;;24.80;51.70;;;;;;5018369;28;20069;-58
2021/09/01 11:46:34;;;;;;;2.22;1.40;;;24.80;52.40;;;;;;5019694;28;20037;-59
2021/09/01 11:49:05;;;;;;;1.80;1.30;;;24.80;51.90;;;;;;5012349;28;20029;-58
2021/09/01 11:51:31;;;;;;;1.42;1.20;;;24.80;52.00;;;;;;5026821;28;20600;-53
2021/09/01 11:53:59;;;;;;;2.03;1.38;;;24.90;52.00;;;;;;5030139;28;20029;-57
2021/09/01 11:56:26;;;;;;;2.00;1.40;;;24.90;52.10;;;;;;5021362;28;20041;-58
2021/09/01 11:58:58;;;;;;;1.80;1.30;;;24.90;52.10;;;;;;5020410;28;20104;-58
2021/09/01 12:01:24;;;;;;;2.20;1.45;;;24.90;52.20;;;;;;5019498;28;20115;-58
2021/09/01 12:03:50;;;;;;;1.70;1.30;;;24.90;52.10;;;;;;5013697;28;20095;-59
2021/09/01 12:06:16;;;;;;;1.52;1.20;;;24.90;52.10;;;;;;5014887;28;20068;-58
2021/09/01 12:08:50;;;;;;;1.65;1.27;;;24.90;52.70;;;;;;5014579;28;20030;-57
2021/09/01 12:11:16;;;;;;;2.53;1.45;;;25.00;52.30;;;;;;5013338;28;20141;-52
2021/09/01 12:13:46;;;;;;;1.77;1.27;;;25.00;52.30;;;;;;5019809;28;20099;-57
2021/09/01 12:16:13;;;;;;;1.40;1.20;;;25.00;52.50;;;;;;5018593;28;20137;-58
2021/09/01 12:18:52;;;;;;;1.60;1.13;;;25.00;52.40;;;;;;5018256;28;20170;-55
2021/09/01 12:21:20;;;;;;;1.50;1.08;;;25.00;52.50;;;;;;5017800;28;20053;-59
2021/09/01 12:24:06;;;;;;;1.65;1.27;;;25.00;52.80;;;;;;5018197;28;20479;-56
2021/09/01 12:26:31;;;;;;;1.85;1.20;;;25.00;53.00;;;;;;5026649;28;20056;-57
2021/09/01 12:28:57;;;;;;;1.63;1.33;;;25.10;53.00;;;;;;5016003;28;20497;-51
2021/09/01 12:31:24;;;;;;;1.85;1.30;;;25.10;52.90;;;;;;5013065;28;20053;-56
2021/09/01 12:33:50;;;;;;;1.45;1.15;;;25.10;52.90;;;;;;5028970;28;20041;-55
2021/09/01 12:36:30;;;;;;;1.63;1.20;;;25.10;52.80;;;;;;5010586;28;20038;-55
2021/09/01 12:38:56;;;;;;;2.00;1.30;;;25.10;52.90;;;;;;5014831;28;20061;-57
2021/09/01 12:41:23;;;;;;;1.73;1.20;;;25.10;52.90;;;;;;5028168;28;20354;-58
2021/09/01 12:44:01;;;;;;;2.10;1.40;;;25.10;53.00;;;;;;5028718;28;20056;-59
2021/09/01 12:46:27;;;;;;;1.40;1.20;;;25.20;53.00;;;;;;5028209;28;20064;-58
2021/09/01 12:48:53;;;;;;;1.40;1.10;;;25.20;52.60;;;;;;5023734;28;20034;-59
2021/09/01 12:51:21;;;;;;;1.50;1.20;;;25.20;53.20;;;;;;5019101;28;20091;-56